sensor_id;sensor_type;location;lat;lon;timestamp;pressure;altitude;pressure_sealevel;temperature;humidity
36386;BME280;24125;47.482;8.770;2022-12-07T00:00:26;96254.13;;;8.00;64.85
36386;BME280;24125;47.482;8.770;2022-12-07T00:02:58;96254.94;;;8.01;64.73
36386;BME280;24125;47.482;8.770;2022-12-07T00:05:31;96252.88;;;7.97;64.99
36386;BME280;24125;47.482;8.770;2022-12-07T00:08:04;96261.63;;;7.98;65.01
36386;BME280;24125;47.482;8.770;2022-12-07T00:10:38;96258.19;;;7.97;65.33
36386;BME280;24125;47.482;8.770;2022-12-07T00:13:11;96257.09;;;7.99;65.17
36386;BME280;24125;47.482;8.770;2022-12-07T00:15:45;96246.47;;;7.99;65.04
36386;BME280;24125;47.482;8.770;2022-12-07T00:18:18;96251.78;;;7.99;64.70
36386;BME280;24125;47.482;8.770;2022-12-07T00:20:51;96251.78;;;7.99;65.17
36386;BME280;24125;47.482;8.770;2022-12-07T00:23:24;96253.66;;;7.98;65.30
36386;BME280;24125;47.482;8.770;2022-12-07T00:26:03;96258.66;;;8.00;64.67
36386;BME280;24125;47.482;8.770;2022-12-07T00:28:37;96253.66;;;7.98;65.07
36386;BME280;24125;47.482;8.770;2022-12-07T00:31:13;96254.44;;;7.99;65.22
36386;BME280;24125;47.482;8.770;2022-12-07T00:33:47;96246.47;;;7.99;64.68
36386;BME280;24125;47.482;8.770;2022-12-07T00:36:21;96244.88;;;7.97;64.63
36386;BME280;24125;47.482;8.770;2022-12-07T00:39:00;96249.31;;;8.02;65.08
36386;BME280;24125;47.482;8.770;2022-12-07T00:41:34;96247.44;;;8.03;64.42
36386;BME280;24125;47.482;8.770;2022-12-07T00:44:07;96251.66;;;8.04;64.85
36386;BME280;24125;47.482;8.770;2022-12-07T00:46:41;96256.34;;;8.07;65.03
36386;BME280;24125;47.482;8.770;2022-12-07T00:49:16;96240.69;;;8.05;64.91
36386;BME280;24125;47.482;8.770;2022-12-07T00:51:49;96243.06;;;8.07;65.08
36386;BME280;24125;47.482;8.770;2022-12-07T00:54:22;96239.31;;;8.08;64.85
36386;BME280;24125;47.482;8.770;2022-12-07T00:56:55;96246.97;;;8.09;65.25
36386;BME280;24125;47.482;8.770;2022-12-07T00:59:28;96240.88;;;8.09;64.60
36386;BME280;24125;47.482;8.770;2022-12-07T01:02:02;96248.72;;;8.14;64.40
36386;BME280;24125;47.482;8.770;2022-12-07T01:04:35;96242.94;;;8.12;65.00
36386;BME280;24125;47.482;8.770;2022-12-07T01:07:08;96241.06;;;8.12;64.69
36386;BME280;24125;47.482;8.770;2022-12-07T01:09:41;96246.84;;;8.14;64.79
36386;BME280;24125;47.482;8.770;2022-12-07T01:12:14;96240.72;;;8.14;64.55
36386;BME280;24125;47.482;8.770;2022-12-07T01:14:47;96247.63;;;8.15;65.13
36386;BME280;24125;47.482;8.770;2022-12-07T01:17:22;96245.75;;;8.15;64.61
36386;BME280;24125;47.482;8.770;2022-12-07T01:19:55;96251.06;;;8.15;64.78
36386;BME280;24125;47.482;8.770;2022-12-07T01:22:28;96246.03;;;8.14;65.11
36386;BME280;24125;47.482;8.770;2022-12-07T01:25:01;96243.38;;;8.14;64.57
36386;BME280;24125;47.482;8.770;2022-12-07T01:27:34;96239.66;;;8.15;64.66
36386;BME280;24125;47.482;8.770;2022-12-07T01:30:10;96242.00;;;8.16;64.48
36386;BME280;24125;47.482;8.770;2022-12-07T01:32:45;96248.09;;;8.17;64.90
36386;BME280;24125;47.482;8.770;2022-12-07T01:35:18;96249.69;;;8.18;64.39
36386;BME280;24125;47.482;8.770;2022-12-07T01:37:51;96245.16;;;8.18;64.32
36386;BME280;24125;47.482;8.770;2022-12-07T01:40:24;96251.25;;;8.19;64.92
36386;BME280;24125;47.482;8.770;2022-12-07T01:42:57;96250.16;;;8.20;64.31
36386;BME280;24125;47.482;8.770;2022-12-07T01:45:39;96250.63;;;8.22;64.18
36386;BME280;24125;47.482;8.770;2022-12-07T01:48:17;96247.81;;;8.18;64.26
36386;BME280;24125;47.482;8.770;2022-12-07T01:50:53;96242.47;;;8.18;64.77
36386;BME280;24125;47.482;8.770;2022-12-07T01:53:30;96245.44;;;8.17;64.60
36386;BME280;24125;47.482;8.770;2022-12-07T01:56:05;96248.41;;;8.15;64.59
36386;BME280;24125;47.482;8.770;2022-12-07T01:58:40;96233.88;;;8.13;64.31
36386;BME280;24125;47.482;8.770;2022-12-07T02:01:13;96234.47;;;8.10;64.54
36386;BME280;24125;47.482;8.770;2022-12-07T02:03:49;96235.25;;;8.10;64.28
36386;BME280;24125;47.482;8.770;2022-12-07T02:06:24;96238.72;;;8.11;64.66
36386;BME280;24125;47.482;8.770;2022-12-07T02:08:58;96227.59;;;8.09;64.84
36386;BME280;24125;47.482;8.770;2022-12-07T02:11:31;96229.16;;;8.10;64.72
36386;BME280;24125;47.482;8.770;2022-12-07T02:14:04;96226.81;;;8.08;64.77
36386;BME280;24125;47.482;8.770;2022-12-07T02:16:46;96228.06;;;8.11;64.44
36386;BME280;24125;47.482;8.770;2022-12-07T02:19:46;96237.28;;;8.13;64.34
36386;BME280;24125;47.482;8.770;2022-12-07T02:25:33;96231.38;;;8.16;64.09
36386;BME280;24125;47.482;8.770;2022-12-07T02:28:19;96222.59;;;8.16;64.13
36386;BME280;24125;47.482;8.770;2022-12-07T02:31:04;96229.50;;;8.17;64.66
36386;BME280;24125;47.482;8.770;2022-12-07T02:33:43;96226.34;;;8.15;64.59
36386;BME280;24125;47.482;8.770;2022-12-07T02:36:21;96234.03;;;8.16;64.26
36386;BME280;24125;47.482;8.770;2022-12-07T02:39:00;96221.31;;;8.13;64.30
36386;BME280;24125;47.482;8.770;2022-12-07T02:41:37;96225.56;;;8.14;64.42
36386;BME280;24125;47.482;8.770;2022-12-07T02:44:13;96226.34;;;8.15;64.19
36386;BME280;24125;47.482;8.770;2022-12-07T02:46:52;96222.91;;;8.14;64.59
36386;BME280;24125;47.482;8.770;2022-12-07T02:49:27;96224.78;;;8.14;64.65
36386;BME280;24125;47.482;8.770;2022-12-07T02:52:02;96227.44;;;8.14;64.54
36386;BME280;24125;47.482;8.770;2022-12-07T02:54:37;96231.22;;;8.13;64.68
36386;BME280;24125;47.482;8.770;2022-12-07T02:57:24;96228.69;;;8.16;64.49
36386;BME280;24125;47.482;8.770;2022-12-07T03:00:03;96219.63;;;8.17;64.74
36386;BME280;24125;47.482;8.770;2022-12-07T03:02:48;96219.63;;;8.17;63.92
36386;BME280;24125;47.482;8.770;2022-12-07T03:05:40;96219.81;;;8.21;64.34
36386;BME280;24125;47.482;8.770;2022-12-07T03:08:21;96212.94;;;8.20;64.49
36386;BME280;24125;47.482;8.770;2022-12-07T03:10:59;96211.84;;;8.21;64.48
36386;BME280;24125;47.482;8.770;2022-12-07T03:13:37;96218.41;;;8.23;64.19
36386;BME280;24125;47.482;8.770;2022-12-07T03:16:15;96207.31;;;8.21;64.62
36386;BME280;24125;47.482;8.770;2022-12-07T03:18:53;96204.31;;;8.23;64.13
36386;BME280;24125;47.482;8.770;2022-12-07T03:21:32;96207.75;;;8.23;64.72
36386;BME280;24125;47.482;8.770;2022-12-07T03:24:11;96206.97;;;8.23;64.48
36386;BME280;24125;47.482;8.770;2022-12-07T03:26:48;96209.63;;;8.23;64.55
36386;BME280;24125;47.482;8.770;2022-12-07T03:29:24;96213.56;;;8.25;63.95
36386;BME280;24125;47.482;8.770;2022-12-07T03:32:01;96205.88;;;8.24;64.08
36386;BME280;24125;47.482;8.770;2022-12-07T03:34:41;96203.22;;;8.24;64.39
36386;BME280;24125;47.482;8.770;2022-12-07T03:37:22;96214.34;;;8.26;64.29
36386;BME280;24125;47.482;8.770;2022-12-07T03:40:03;96210.13;;;8.25;64.57
36386;BME280;24125;47.482;8.770;2022-12-07T03:42:39;96212.78;;;8.25;64.35
36386;BME280;24125;47.482;8.770;2022-12-07T03:45:12;96214.66;;;8.24;64.42
36386;BME280;24125;47.482;8.770;2022-12-07T03:47:48;96214.03;;;8.27;63.88
36386;BME280;24125;47.482;8.770;2022-12-07T03:50:31;96210.91;;;8.25;64.80
36386;BME280;24125;47.482;8.770;2022-12-07T03:53:11;96216.22;;;8.25;64.17
36386;BME280;24125;47.482;8.770;2022-12-07T03:55:48;96215.44;;;8.25;64.35
36386;BME280;24125;47.482;8.770;2022-12-07T03:58:22;96219.97;;;8.24;64.21
36386;BME280;24125;47.482;8.770;2022-12-07T04:00:56;96215.13;;;8.26;64.74
36386;BME280;24125;47.482;8.770;2022-12-07T04:03:29;96210.91;;;8.25;64.31
36386;BME280;24125;47.482;8.770;2022-12-07T04:06:03;96213.56;;;8.25;64.44
36386;BME280;24125;47.482;8.770;2022-12-07T04:08:36;96207.44;;;8.25;64.74
36386;BME280;24125;47.482;8.770;2022-12-07T04:11:10;96213.25;;;8.27;64.50
36386;BME280;24125;47.482;8.770;2022-12-07T04:13:42;96215.13;;;8.26;64.63
36386;BME280;24125;47.482;8.770;2022-12-07T04:16:33;96216.41;;;8.29;64.72
36386;BME280;24125;47.482;8.770;2022-12-07T04:19:15;96206.84;;;8.28;65.00
36386;BME280;24125;47.482;8.770;2022-12-07T04:21:50;96206.53;;;8.29;65.00
36386;BME280;24125;47.482;8.770;2022-12-07T04:24:23;96203.72;;;8.26;64.63
36386;BME280;24125;47.482;8.770;2022-12-07T04:26:57;96205.59;;;8.25;65.13
36386;BME280;24125;47.482;8.770;2022-12-07T04:29:30;96204.00;;;8.24;65.14
36386;BME280;24125;47.482;8.770;2022-12-07T04:32:03;96205.09;;;8.23;64.98
36386;BME280;24125;47.482;8.770;2022-12-07T04:34:36;96203.22;;;8.24;65.47
36386;BME280;24125;47.482;8.770;2022-12-07T04:37:11;96209.03;;;8.26;64.99
36386;BME280;24125;47.482;8.770;2022-12-07T04:39:44;96207.44;;;8.25;65.38
36386;BME280;24125;47.482;8.770;2022-12-07T04:42:17;96204.00;;;8.24;64.90
36386;BME280;24125;47.482;8.770;2022-12-07T04:44:50;96204.50;;;8.26;65.36
36386;BME280;24125;47.482;8.770;2022-12-07T04:47:23;96207.44;;;8.25;65.05
36386;BME280;24125;47.482;8.770;2022-12-07T04:49:56;96204.50;;;8.26;65.58
36386;BME280;24125;47.482;8.770;2022-12-07T04:52:31;96206.38;;;8.26;65.07
36386;BME280;24125;47.482;8.770;2022-12-07T04:55:04;96209.03;;;8.26;65.68
36386;BME280;24125;47.482;8.770;2022-12-07T04:57:37;96210.28;;;8.28;65.17
36386;BME280;24125;47.482;8.770;2022-12-07T05:00:11;96211.88;;;8.29;65.13
36386;BME280;24125;47.482;8.770;2022-12-07T05:02:46;96213.75;;;8.29;64.96
36386;BME280;24125;47.482;8.770;2022-12-07T05:05:19;96211.88;;;8.29;64.96
36386;BME280;24125;47.482;8.770;2022-12-07T05:07:54;96214.22;;;8.31;64.83
36386;BME280;24125;47.482;8.770;2022-12-07T05:10:27;96214.53;;;8.29;64.94
36386;BME280;24125;47.482;8.770;2022-12-07T05:13:00;96214.53;;;8.29;65.43
36386;BME280;24125;47.482;8.770;2022-12-07T05:15:33;96216.88;;;8.31;65.09
36386;BME280;24125;47.482;8.770;2022-12-07T05:18:06;96204.97;;;8.28;65.03
36386;BME280;24125;47.482;8.770;2022-12-07T05:20:39;96206.84;;;8.28;65.40
36386;BME280;24125;47.482;8.770;2022-12-07T05:23:14;96211.06;;;8.29;65.52
36386;BME280;24125;47.482;8.770;2022-12-07T05:25:47;96209.03;;;8.26;65.40
36386;BME280;24125;47.482;8.770;2022-12-07T05:28:20;96205.88;;;8.24;64.80
36386;BME280;24125;47.482;8.770;2022-12-07T05:30:53;96205.88;;;8.24;65.06
36386;BME280;24125;47.482;8.770;2022-12-07T05:33:30;96204.66;;;8.21;65.57
36386;BME280;24125;47.482;8.770;2022-12-07T05:36:04;96208.84;;;8.22;65.18
36386;BME280;24125;47.482;8.770;2022-12-07T05:38:40;96206.97;;;8.23;65.47
36386;BME280;24125;47.482;8.770;2022-12-07T05:41:16;96203.06;;;8.20;65.62
36386;BME280;24125;47.482;8.770;2022-12-07T05:44:07;96206.03;;;8.19;65.63
36386;BME280;24125;47.482;8.770;2022-12-07T05:46:41;96213.53;;;8.17;65.68
36386;BME280;24125;47.482;8.770;2022-12-07T05:49:14;96210.88;;;8.17;65.38
36386;BME280;24125;47.482;8.770;2022-12-07T05:51:47;96213.06;;;8.15;65.34
36386;BME280;24125;47.482;8.770;2022-12-07T05:54:21;96218.38;;;8.15;65.32
36386;BME280;24125;47.482;8.770;2022-12-07T05:56:54;96211.81;;;8.12;65.71
36386;BME280;24125;47.482;8.770;2022-12-07T05:59:30;96211.03;;;8.12;66.00
36386;BME280;24125;47.482;8.770;2022-12-07T06:02:04;96221.66;;;8.12;65.96
36386;BME280;24125;47.482;8.770;2022-12-07T06:04:40;96213.69;;;8.12;65.46
36386;BME280;24125;47.482;8.770;2022-12-07T06:07:15;96222.44;;;8.12;66.25
36386;BME280;24125;47.482;8.770;2022-12-07T06:09:50;96217.13;;;8.12;66.06
36386;BME280;24125;47.482;8.770;2022-12-07T06:12:23;96216.34;;;8.12;66.18
36386;BME280;24125;47.482;8.770;2022-12-07T06:15:10;96212.13;;;8.11;66.47
36386;BME280;24125;47.482;8.770;2022-12-07T06:17:44;96214.47;;;8.12;66.15
36386;BME280;24125;47.482;8.770;2022-12-07T06:20:17;96222.44;;;8.12;65.95
36386;BME280;24125;47.482;8.770;2022-12-07T06:22:50;96225.91;;;8.13;66.42
36386;BME280;24125;47.482;8.770;2022-12-07T06:25:25;96226.66;;;8.13;66.12
36386;BME280;24125;47.482;8.770;2022-12-07T06:27:58;96218.22;;;8.11;65.98
36386;BME280;24125;47.482;8.770;2022-12-07T06:30:31;96222.44;;;8.12;66.39
36386;BME280;24125;47.482;8.770;2022-12-07T06:33:04;96236.53;;;8.13;66.37
36386;BME280;24125;47.482;8.770;2022-12-07T06:35:37;96227.28;;;8.10;66.98
36386;BME280;24125;47.482;8.770;2022-12-07T06:38:10;96226.50;;;8.10;66.90
36386;BME280;24125;47.482;8.770;2022-12-07T06:40:45;96235.25;;;8.10;66.68
36386;BME280;24125;47.482;8.770;2022-12-07T06:43:18;96224.94;;;8.09;66.77
36386;BME280;24125;47.482;8.770;2022-12-07T06:45:51;96225.72;;;8.09;66.62
36386;BME280;24125;47.482;8.770;2022-12-07T06:48:24;96223.84;;;8.10;66.53
36386;BME280;24125;47.482;8.770;2022-12-07T06:50:57;96222.56;;;8.07;67.00
36386;BME280;24125;47.482;8.770;2022-12-07T06:53:30;96226.81;;;8.08;66.60
36386;BME280;24125;47.482;8.770;2022-12-07T06:56:04;96218.03;;;8.08;67.11
36386;BME280;24125;47.482;8.770;2022-12-07T06:58:39;96223.66;;;8.06;66.87
36386;BME280;24125;47.482;8.770;2022-12-07T07:01:13;96226.00;;;8.08;66.83
36386;BME280;24125;47.482;8.770;2022-12-07T07:03:47;96219.44;;;8.05;67.23
36386;BME280;24125;47.482;8.770;2022-12-07T07:06:20;96225.53;;;8.06;66.84
36386;BME280;24125;47.482;8.770;2022-12-07T07:08:53;96229.28;;;8.05;66.76
36386;BME280;24125;47.482;8.770;2022-12-07T07:11:27;96224.75;;;8.05;67.13
36386;BME280;24125;47.482;8.770;2022-12-07T07:14:00;96226.63;;;8.05;67.17
36386;BME280;24125;47.482;8.770;2022-12-07T07:16:34;96220.53;;;8.04;66.93
36386;BME280;24125;47.482;8.770;2022-12-07T07:19:07;96225.38;;;8.02;66.85
36386;BME280;24125;47.482;8.770;2022-12-07T07:21:40;96221.94;;;8.02;67.11
36386;BME280;24125;47.482;8.770;2022-12-07T07:24:13;96219.88;;;7.99;67.37
36386;BME280;24125;47.482;8.770;2022-12-07T07:26:47;96217.22;;;7.99;67.27
36386;BME280;24125;47.482;8.770;2022-12-07T07:29:20;96228.94;;;7.97;67.21
36386;BME280;24125;47.482;8.770;2022-12-07T07:31:53;96229.25;;;7.96;67.30
36386;BME280;24125;47.482;8.770;2022-12-07T07:34:30;96234.88;;;7.94;67.11
36386;BME280;24125;47.482;8.770;2022-12-07T07:37:03;96235.97;;;7.93;67.60
36386;BME280;24125;47.482;8.770;2022-12-07T07:39:35;96238.94;;;7.92;67.46
36386;BME280;24125;47.482;8.770;2022-12-07T07:42:10;96232.03;;;7.91;67.20
36386;BME280;24125;47.482;8.770;2022-12-07T07:44:43;96238.75;;;7.88;67.34
36386;BME280;24125;47.482;8.770;2022-12-07T07:47:16;96243.75;;;7.90;67.98
36386;BME280;24125;47.482;8.770;2022-12-07T07:49:50;96233.75;;;7.87;67.52
36386;BME280;24125;47.482;8.770;2022-12-07T07:52:23;96249.38;;;7.88;68.03
36386;BME280;24125;47.482;8.770;2022-12-07T07:54:56;96245.94;;;7.88;68.10
36386;BME280;24125;47.482;8.770;2022-12-07T07:57:30;96253.63;;;7.89;67.91
36386;BME280;24125;47.482;8.770;2022-12-07T08:00:04;96255.47;;;7.89;67.69
36386;BME280;24125;47.482;8.770;2022-12-07T08:02:38;96246.44;;;7.90;67.80
36386;BME280;24125;47.482;8.770;2022-12-07T08:05:12;96246.72;;;7.88;67.77
36386;BME280;24125;47.482;8.770;2022-12-07T08:07:45;96250.66;;;7.91;67.60
36386;BME280;24125;47.482;8.770;2022-12-07T08:10:18;96249.88;;;7.90;67.66
36386;BME280;24125;47.482;8.770;2022-12-07T08:12:53;96243.47;;;7.91;67.62
36386;BME280;24125;47.482;8.770;2022-12-07T08:15:46;96251.44;;;7.91;67.50
36386;BME280;24125;47.482;8.770;2022-12-07T08:18:20;96252.53;;;7.90;67.74
36386;BME280;24125;47.482;8.770;2022-12-07T08:20:58;96259.41;;;7.91;67.70
36386;BME280;24125;47.482;8.770;2022-12-07T08:23:32;96250.66;;;7.91;67.82
36386;BME280;24125;47.482;8.770;2022-12-07T08:26:12;96257.53;;;7.92;67.57
36386;BME280;24125;47.482;8.770;2022-12-07T08:28:47;96259.91;;;7.93;67.70
36386;BME280;24125;47.482;8.770;2022-12-07T08:31:20;96262.56;;;7.93;67.92
36386;BME280;24125;47.482;8.770;2022-12-07T08:33:53;96268.66;;;7.94;68.22
36386;BME280;24125;47.482;8.770;2022-12-07T08:36:26;96269.44;;;7.94;67.82
36386;BME280;24125;47.482;8.770;2022-12-07T08:38:59;96261.94;;;7.96;67.68
36386;BME280;24125;47.482;8.770;2022-12-07T08:41:52;96266.94;;;7.98;68.02
36386;BME280;24125;47.482;8.770;2022-12-07T08:44:27;96273.22;;;8.02;67.57
36386;BME280;24125;47.482;8.770;2022-12-07T08:47:02;96267.63;;;8.04;68.10
36386;BME280;24125;47.482;8.770;2022-12-07T08:49:40;96258.53;;;8.05;68.04
36386;BME280;24125;47.482;8.770;2022-12-07T08:52:14;96254.78;;;8.06;68.16
36386;BME280;24125;47.482;8.770;2022-12-07T08:54:48;96260.59;;;8.08;67.73
36386;BME280;24125;47.482;8.770;2022-12-07T08:57:22;96261.56;;;8.12;67.72
36386;BME280;24125;47.482;8.770;2022-12-07T08:59:57;96267.66;;;8.12;68.21
36386;BME280;24125;47.482;8.770;2022-12-07T09:02:31;96256.38;;;8.15;67.90
36386;BME280;24125;47.482;8.770;2022-12-07T09:05:05;96259.03;;;8.15;68.56
36386;BME280;24125;47.482;8.770;2022-12-07T09:07:49;96266.13;;;8.20;67.79
36386;BME280;24125;47.482;8.770;2022-12-07T09:10:25;96262.66;;;8.19;68.03
36386;BME280;24125;47.482;8.770;2022-12-07T09:12:58;96263.16;;;8.21;68.12
36386;BME280;24125;47.482;8.770;2022-12-07T09:15:34;96269.72;;;8.24;68.86
36386;BME280;24125;47.482;8.770;2022-12-07T09:18:07;96273.16;;;8.24;67.98
36386;BME280;24125;47.482;8.770;2022-12-07T09:20:40;96270.97;;;8.26;68.32
36386;BME280;24125;47.482;8.770;2022-12-07T09:23:13;96265.06;;;8.29;68.21
36386;BME280;24125;47.482;8.770;2022-12-07T09:25:46;96277.44;;;8.34;68.21
36386;BME280;24125;47.482;8.770;2022-12-07T09:28:20;96276.06;;;8.37;67.86
36386;BME280;24125;47.482;8.770;2022-12-07T09:30:58;96282.31;;;8.41;68.21
36386;BME280;24125;47.482;8.770;2022-12-07T09:33:54;96283.28;;;8.45;68.20
36386;BME280;24125;47.482;8.770;2022-12-07T09:36:28;96275.78;;;8.47;67.94
36386;BME280;24125;47.482;8.770;2022-12-07T09:39:02;96279.69;;;8.49;67.55
36386;BME280;24125;47.482;8.770;2022-12-07T09:41:38;96282.22;;;8.54;67.98
36386;BME280;24125;47.482;8.770;2022-12-07T09:44:18;96278.63;;;8.59;68.08
36386;BME280;24125;47.482;8.770;2022-12-07T09:46:54;96286.78;;;8.62;67.99
36386;BME280;24125;47.482;8.770;2022-12-07T09:49:35;96283.03;;;8.63;67.73
36386;BME280;24125;47.482;8.770;2022-12-07T09:52:19;96281.97;;;8.73;67.97
36386;BME280;24125;47.482;8.770;2022-12-07T09:54:54;96278.19;;;8.74;67.79
36386;BME280;24125;47.482;8.770;2022-12-07T09:57:29;96278.84;;;8.80;67.48
36386;BME280;24125;47.482;8.770;2022-12-07T10:00:06;96272.56;;;8.84;67.25
36386;BME280;24125;47.482;8.770;2022-12-07T10:02:47;96270.06;;;8.88;67.37
36386;BME280;24125;47.482;8.770;2022-12-07T10:05:24;96258.47;;;8.92;67.18
36386;BME280;24125;47.482;8.770;2022-12-07T10:07:59;96262.09;;;8.96;67.71
36386;BME280;24125;47.482;8.770;2022-12-07T10:10:35;96256.13;;;8.99;67.13
36386;BME280;24125;47.482;8.770;2022-12-07T10:13:11;96252.53;;;9.04;67.15
36386;BME280;24125;47.482;8.770;2022-12-07T10:15:47;96245.50;;;9.08;67.07
36386;BME280;24125;47.482;8.770;2022-12-07T10:18:29;96247.22;;;9.13;67.26
36386;BME280;24125;47.482;8.770;2022-12-07T10:21:14;96240.50;;;9.15;67.12
36386;BME280;24125;47.482;8.770;2022-12-07T10:23:59;96244.25;;;9.23;67.21
36386;BME280;24125;47.482;8.770;2022-12-07T10:26:36;96236.72;;;9.25;66.87
36386;BME280;24125;47.482;8.770;2022-12-07T10:29:15;96236.06;;;9.28;67.07
36386;BME280;24125;47.482;8.770;2022-12-07T10:31:54;96229.50;;;9.34;67.28
36386;BME280;24125;47.482;8.770;2022-12-07T10:34:31;96225.41;;;9.36;67.07
36386;BME280;24125;47.482;8.770;2022-12-07T10:37:18;96214.59;;;9.41;66.99
36386;BME280;24125;47.482;8.770;2022-12-07T10:39:53;96215.53;;;9.45;66.86
36386;BME280;24125;47.482;8.770;2022-12-07T10:42:29;96215.38;;;9.51;66.92
36386;BME280;24125;47.482;8.770;2022-12-07T10:45:15;96216.75;;;9.57;66.83
36386;BME280;24125;47.482;8.770;2022-12-07T10:47:54;96208.91;;;9.60;66.43
36386;BME280;24125;47.482;8.770;2022-12-07T10:50:52;96206.09;;;9.65;66.01
36386;BME280;24125;47.482;8.770;2022-12-07T10:53:52;96213.28;;;9.73;65.65
36386;BME280;24125;47.482;8.770;2022-12-07T10:56:54;96199.31;;;9.76;65.63
36386;BME280;24125;47.482;8.770;2022-12-07T10:59:53;96194.09;;;9.80;65.61
36386;BME280;24125;47.482;8.770;2022-12-07T11:02:41;96193.47;;;9.83;65.29
36386;BME280;24125;47.482;8.770;2022-12-07T11:05:25;96200.97;;;9.90;65.12
36386;BME280;24125;47.482;8.770;2022-12-07T11:08:08;96190.00;;;9.91;64.69
36386;BME280;24125;47.482;8.770;2022-12-07T11:10:49;96184.03;;;9.94;64.86
36386;BME280;24125;47.482;8.770;2022-12-07T11:13:40;96181.81;;;9.96;64.31
36386;BME280;24125;47.482;8.770;2022-12-07T11:16:24;96176.16;;;9.98;64.30
36386;BME280;24125;47.482;8.770;2022-12-07T11:19:16;96179.28;;;10.00;64.30
36386;BME280;24125;47.482;8.770;2022-12-07T11:22:03;96177.09;;;10.02;64.14
36386;BME280;24125;47.482;8.770;2022-12-07T11:24:44;96176.00;;;10.03;64.14
36386;BME280;24125;47.482;8.770;2022-12-07T11:27:25;96170.66;;;10.03;64.19
36386;BME280;24125;47.482;8.770;2022-12-07T11:30:10;96169.53;;;10.04;64.33
36386;BME280;24125;47.482;8.770;2022-12-07T11:32:57;96167.66;;;10.04;64.17
36386;BME280;24125;47.482;8.770;2022-12-07T11:35:38;96162.78;;;10.06;64.29
36386;BME280;24125;47.482;8.770;2022-12-07T11:38:17;96164.34;;;10.07;64.61
36386;BME280;24125;47.482;8.770;2022-12-07T11:41:02;96156.50;;;10.11;63.79
36386;BME280;24125;47.482;8.770;2022-12-07T11:43:54;96152.38;;;10.13;63.80
36386;BME280;24125;47.482;8.770;2022-12-07T11:46:40;96155.50;;;10.15;63.71
36386;BME280;24125;47.482;8.770;2022-12-07T11:49:21;96154.13;;;10.18;63.79
36386;BME280;24125;47.482;8.770;2022-12-07T11:51:59;96146.91;;;10.18;64.13
36386;BME280;24125;47.482;8.770;2022-12-07T11:54:40;96148.59;;;10.23;63.02
36386;BME280;24125;47.482;8.770;2022-12-07T11:57:19;96139.50;;;10.24;63.70
36386;BME280;24125;47.482;8.770;2022-12-07T11:59:58;96140.06;;;10.30;63.57
36386;BME280;24125;47.482;8.770;2022-12-07T12:02:38;96140.53;;;10.32;63.90
36386;BME280;24125;47.482;8.770;2022-12-07T12:05:17;96134.25;;;10.36;64.18
36386;BME280;24125;47.482;8.770;2022-12-07T12:07:57;96127.91;;;10.41;64.06
36386;BME280;24125;47.482;8.770;2022-12-07T12:10:58;96130.06;;;10.47;63.75
36386;BME280;24125;47.482;8.770;2022-12-07T12:14:08;96136.00;;;10.53;63.98
36386;BME280;24125;47.482;8.770;2022-12-07T12:17:26;96131.25;;;10.58;63.44
36386;BME280;24125;47.482;8.770;2022-12-07T12:20:13;96122.91;;;10.60;63.69
36386;BME280;24125;47.482;8.770;2022-12-07T12:22:53;96114.28;;;10.63;63.37
36386;BME280;24125;47.482;8.770;2022-12-07T12:25:34;96118.16;;;10.66;63.11
36386;BME280;24125;47.482;8.770;2022-12-07T12:28:20;96119.41;;;10.68;62.77
36386;BME280;24125;47.482;8.770;2022-12-07T12:31:08;96116.41;;;10.70;62.90
36386;BME280;24125;47.482;8.770;2022-12-07T12:33:43;96109.97;;;10.71;63.25
36386;BME280;24125;47.482;8.770;2022-12-07T12:36:21;96117.66;;;10.72;63.10
36386;BME280;24125;47.482;8.770;2022-12-07T12:39:11;96115.88;;;10.76;62.31
36386;BME280;24125;47.482;8.770;2022-12-07T12:41:57;96114.31;;;10.75;62.73
36386;BME280;24125;47.482;8.770;2022-12-07T12:44:41;96110.84;;;10.75;62.54
36386;BME280;24125;47.482;8.770;2022-12-07T12:47:41;96109.75;;;10.76;62.12
36386;BME280;24125;47.482;8.770;2022-12-07T12:50:19;96111.63;;;10.75;62.40
36386;BME280;24125;47.482;8.770;2022-12-07T12:53:05;96108.50;;;10.73;62.31
36386;BME280;24125;47.482;8.770;2022-12-07T12:59:25;96107.28;;;10.71;62.10
36386;BME280;24125;47.482;8.770;2022-12-07T13:02:16;96103.06;;;10.70;62.37
36386;BME280;24125;47.482;8.770;2022-12-07T13:04:55;96106.06;;;10.68;62.14
36386;BME280;24125;47.482;8.770;2022-12-07T13:07:52;96092.25;;;10.66;62.05
36386;BME280;24125;47.482;8.770;2022-12-07T13:10:44;96083.78;;;10.64;61.63
36386;BME280;24125;47.482;8.770;2022-12-07T13:13:32;96084.44;;;10.61;60.86
36386;BME280;24125;47.482;8.770;2022-12-07T13:22:54;96078.84;;;10.54;61.88
36386;BME280;24125;47.482;8.770;2022-12-07T13:25:36;96069.94;;;10.50;61.54
36386;BME280;24125;47.482;8.770;2022-12-07T13:28:15;96067.25;;;10.50;61.34
36386;BME280;24125;47.482;8.770;2022-12-07T13:31:13;96070.25;;;10.48;61.58
36386;BME280;24125;47.482;8.770;2022-12-07T13:33:47;96063.69;;;10.46;62.12
36386;BME280;24125;47.482;8.770;2022-12-07T13:36:25;96073.22;;;10.47;62.13
36386;BME280;24125;47.482;8.770;2022-12-07T13:39:01;96062.13;;;10.45;61.92
36386;BME280;24125;47.482;8.770;2022-12-07T13:41:43;96075.47;;;10.45;61.75
36386;BME280;24125;47.482;8.770;2022-12-07T13:44:17;96057.91;;;10.44;61.47
36386;BME280;24125;47.482;8.770;2022-12-07T13:47:00;96068.88;;;10.42;60.87
36386;BME280;24125;47.482;8.770;2022-12-07T13:49:39;96065.75;;;10.40;61.08
36386;BME280;24125;47.482;8.770;2022-12-07T13:52:25;96056.06;;;10.36;61.36
36386;BME280;24125;47.482;8.770;2022-12-07T13:55:05;96055.63;;;10.34;61.61
36386;BME280;24125;47.482;8.770;2022-12-07T13:57:50;96060.16;;;10.33;61.24
36386;BME280;24125;47.482;8.770;2022-12-07T14:00:25;96055.03;;;10.28;61.06
36386;BME280;24125;47.482;8.770;2022-12-07T14:03:00;96054.91;;;10.25;61.10
36386;BME280;24125;47.482;8.770;2022-12-07T14:05:34;96050.19;;;10.21;60.92
36386;BME280;24125;47.482;8.770;2022-12-07T14:08:22;96044.53;;;10.23;60.89
36386;BME280;24125;47.482;8.770;2022-12-07T14:10:58;96036.44;;;10.19;61.15
36386;BME280;24125;47.482;8.770;2022-12-07T14:13:34;96040.50;;;10.17;61.48
36386;BME280;24125;47.482;8.770;2022-12-07T14:16:23;96043.97;;;10.17;61.20
36386;BME280;24125;47.482;8.770;2022-12-07T14:18:58;96041.91;;;10.14;61.62